sensor_id;sensor_type;location;lat;lon;timestamp;pressure;altitude;pressure_sealevel;temperature;humidity
50087;BME280;35967;50.718;7.050;2022-10-18T00:06:11;101715.75;;;18.81;89.93
50087;BME280;35967;50.718;7.050;2022-10-18T00:16:16;101724.19;;;18.66;90.40
50087;BME280;35967;50.718;7.050;2022-10-18T00:26:23;101703.19;;;18.92;89.65
50087;BME280;35967;50.718;7.050;2022-10-18T00:36:28;101697.56;;;18.80;89.44
50087;BME280;35967;50.718;7.050;2022-10-18T00:46:34;101692.06;;;18.65;90.53
50087;BME280;35967;50.718;7.050;2022-10-18T00:56:38;101684.16;;;18.67;90.35
50087;BME280;35967;50.718;7.050;2022-10-18T01:06:48;101683.44;;;18.63;90.89
50087;BME280;35967;50.718;7.050;2022-10-18T01:16:59;101678.41;;;18.58;91.68
50087;BME280;35967;50.718;7.050;2022-10-18T01:27:30;101667.91;;;18.60;91.98
50087;BME280;35967;50.718;7.050;2022-10-18T01:37:36;101677.59;;;18.56;92.06
50087;BME280;35967;50.718;7.050;2022-10-18T01:47:41;101674.22;;;18.54;91.86
50087;BME280;35967;50.718;7.050;2022-10-18T01:57:57;101667.91;;;18.60;91.71
50087;BME280;35967;50.718;7.050;2022-10-18T02:08:06;101659.44;;;18.55;92.12
50087;BME280;35967;50.718;7.050;2022-10-18T02:18:28;101645.31;;;18.60;93.10
50087;BME280;35967;50.718;7.050;2022-10-18T02:28:33;101651.47;;;18.36;93.48
50087;BME280;35967;50.718;7.050;2022-10-18T02:38:39;101668.03;;;18.35;93.40
50087;BME280;35967;50.718;7.050;2022-10-18T02:48:43;101676.69;;;18.35;93.42
50087;BME280;35967;50.718;7.050;2022-10-18T02:58:49;101681.53;;;18.22;94.44
50087;BME280;35967;50.718;7.050;2022-10-18T03:08:52;101684.50;;;18.13;95.37
50087;BME280;35967;50.718;7.050;2022-10-18T03:19:02;101680.75;;;18.20;94.61
50087;BME280;35967;50.718;7.050;2022-10-18T03:29:15;101684.31;;;18.18;94.98
50087;BME280;35967;50.718;7.050;2022-10-18T03:39:24;101690.47;;;18.15;94.89
50087;BME280;35967;50.718;7.050;2022-10-18T03:49:33;101684.00;;;18.25;95.03
50087;BME280;35967;50.718;7.050;2022-10-18T03:59:51;101674.66;;;18.20;94.84
50087;BME280;35967;50.718;7.050;2022-10-18T04:09:58;101687.09;;;18.13;95.62
50087;BME280;35967;50.718;7.050;2022-10-18T04:20:07;101691.28;;;18.17;95.27
50087;BME280;35967;50.718;7.050;2022-10-18T04:30:15;101682.94;;;18.31;94.61
50087;BME280;35967;50.718;7.050;2022-10-18T04:40:25;101696.97;;;18.27;94.72
50087;BME280;35967;50.718;7.050;2022-10-18T04:50:28;101684.88;;;18.26;95.20
50087;BME280;35967;50.718;7.050;2022-10-18T05:00:49;101693.31;;;18.09;95.39
50087;BME280;35967;50.718;7.050;2022-10-18T05:10:57;101700.69;;;18.21;94.53
50087;BME280;35967;50.718;7.050;2022-10-18T05:21:09;101711.16;;;18.20;93.92
50087;BME280;35967;50.718;7.050;2022-10-18T05:31:17;101717.22;;;18.20;94.29
50087;BME280;35967;50.718;7.050;2022-10-18T05:41:31;101715.63;;;18.16;93.75
50087;BME280;35967;50.718;7.050;2022-10-18T05:51:39;101723.25;;;17.99;95.13
50087;BME280;35967;50.718;7.050;2022-10-18T06:01:45;101720.63;;;17.99;94.94
50087;BME280;35967;50.718;7.050;2022-10-18T06:11:54;101738.47;;;18.09;94.61
50087;BME280;35967;50.718;7.050;2022-10-18T06:22:02;101736.59;;;18.13;94.07
50087;BME280;35967;50.718;7.050;2022-10-18T06:32:06;101733.09;;;18.14;93.67
50087;BME280;35967;50.718;7.050;2022-10-18T06:42:11;101741.09;;;18.09;94.06
50087;BME280;35967;50.718;7.050;2022-10-18T06:52:15;101742.81;;;18.09;93.90
50087;BME280;35967;50.718;7.050;2022-10-18T07:02:36;101747.28;;;18.05;94.54
50087;BME280;35967;50.718;7.050;2022-10-18T07:12:55;101769.44;;;18.17;94.92
50087;BME280;35967;50.718;7.050;2022-10-18T07:23:20;101772.97;;;18.16;95.11
50087;BME280;35967;50.718;7.050;2022-10-18T07:33:28;101782.88;;;18.06;96.58
50087;BME280;35967;50.718;7.050;2022-10-18T07:54:17;101818.50;;;17.79;98.08
50087;BME280;35967;50.718;7.050;2022-10-18T08:04:20;101834.94;;;17.81;98.52
50087;BME280;35967;50.718;7.050;2022-10-18T08:14:27;101840.53;;;17.70;99.01
50087;BME280;35967;50.718;7.050;2022-10-18T08:24:30;101829.38;;;17.92;98.49
50087;BME280;35967;50.718;7.050;2022-10-18T08:34:35;101837.19;;;17.92;98.72
50087;BME280;35967;50.718;7.050;2022-10-18T08:44:43;101856.09;;;17.99;98.77
50087;BME280;35967;50.718;7.050;2022-10-18T08:55:01;101858.22;;;18.12;98.58
50087;BME280;35967;50.718;7.050;2022-10-18T09:05:21;101873.81;;;18.14;99.02
50087;BME280;35967;50.718;7.050;2022-10-18T09:15:41;101871.00;;;18.20;98.71
50087;BME280;35967;50.718;7.050;2022-10-18T09:25:58;101880.19;;;18.05;99.52
50087;BME280;35967;50.718;7.050;2022-10-18T09:36:10;101890.38;;;18.11;99.03
50087;BME280;35967;50.718;7.050;2022-10-18T09:46:19;101889.69;;;18.06;99.30
50087;BME280;35967;50.718;7.050;2022-10-18T09:56:28;101902.28;;;18.19;99.49
50087;BME280;35967;50.718;7.050;2022-10-18T10:06:32;101898.69;;;18.23;99.77
50087;BME280;35967;50.718;7.050;2022-10-18T10:16:50;101912.84;;;18.16;99.94
50087;BME280;35967;50.718;7.050;2022-10-18T10:27:02;101912.69;;;18.20;100.00
50087;BME280;35967;50.718;7.050;2022-10-18T10:37:22;101911.88;;;18.43;100.00
50087;BME280;35967;50.718;7.050;2022-10-18T10:47:27;101924.31;;;18.35;100.00
50087;BME280;35967;50.718;7.050;2022-10-18T10:57:34;101925.28;;;18.33;100.00
50087;BME280;35967;50.718;7.050;2022-10-18T11:07:40;101945.75;;;18.18;100.00
50087;BME280;35967;50.718;7.050;2022-10-18T11:17:47;101935.25;;;18.21;100.00
50087;BME280;35967;50.718;7.050;2022-10-18T11:28:02;101930.03;;;18.47;100.00
50087;BME280;35967;50.718;7.050;2022-10-18T11:38:29;101909.53;;;18.61;100.00
50087;BME280;35967;50.718;7.050;2022-10-18T11:48:45;101906.31;;;18.54;100.00
50087;BME280;35967;50.718;7.050;2022-10-18T11:59:06;101907.72;;;18.63;100.00
50087;BME280;35967;50.718;7.050;2022-10-18T12:09:18;101895.53;;;18.87;100.00
50087;BME280;35967;50.718;7.050;2022-10-18T12:19:27;101902.22;;;18.71;100.00
50087;BME280;35967;50.718;7.050;2022-10-18T12:29:36;101896.31;;;18.66;100.00
50087;BME280;35967;50.718;7.050;2022-10-18T12:39:51;101895.47;;;18.65;100.00
50087;BME280;35967;50.718;7.050;2022-10-18T12:50:28;101899.59;;;18.71;100.00
50087;BME280;35967;50.718;7.050;2022-10-18T13:00:55;101902.09;;;18.74;99.09
50087;BME280;35967;50.718;7.050;2022-10-18T13:11:24;101878.72;;;18.71;97.95
50087;BME280;35967;50.718;7.050;2022-10-18T13:21:40;101867.75;;;19.32;98.52
50087;BME280;35967;50.718;7.050;2022-10-18T13:31:47;101882.69;;;19.29;96.25
50087;BME280;35967;50.718;7.050;2022-10-18T13:42:18;101876.47;;;19.31;91.62
50087;BME280;35967;50.718;7.050;2022-10-18T13:52:27;101880.06;;;19.51;91.30
50087;BME280;35967;50.718;7.050;2022-10-18T14:02:55;101885.84;;;19.15;91.19
50087;BME280;35967;50.718;7.050;2022-10-18T14:13:17;101881.09;;;19.02;91.45
50087;BME280;35967;50.718;7.050;2022-10-18T14:23:25;101887.09;;;19.04;92.40
50087;BME280;35967;50.718;7.050;2022-10-18T14:33:32;101897.72;;;19.00;90.92
50087;BME280;35967;50.718;7.050;2022-10-18T14:43:38;101893.19;;;19.27;90.32
50087;BME280;35967;50.718;7.050;2022-10-18T14:53:41;101895.41;;;18.90;91.97
50087;BME280;35967;50.718;7.050;2022-10-18T15:03:46;101894.78;;;18.84;92.06
50087;BME280;35967;50.718;7.050;2022-10-18T15:13:53;101903.34;;;18.87;92.80
50087;BME280;35967;50.718;7.050;2022-10-18T15:24:18;101903.66;;;18.80;91.01
50087;BME280;35967;50.718;7.050;2022-10-18T15:34:23;101900.16;;;18.79;90.67
50087;BME280;35967;50.718;7.050;2022-10-18T15:44:31;101896.97;;;18.72;91.21
50087;BME280;35967;50.718;7.050;2022-10-18T15:54:35;101895.59;;;18.62;91.03
50087;BME280;35967;50.718;7.050;2022-10-18T16:04:40;101892.91;;;18.64;90.62
50087;BME280;35967;50.718;7.050;2022-10-18T16:14:43;101897.53;;;18.55;90.63
50087;BME280;35967;50.718;7.050;2022-10-18T16:24:47;101904.03;;;18.45;90.10
50087;BME280;35967;50.718;7.050;2022-10-18T16:34:51;101917.25;;;18.39;89.64
50087;BME280;35967;50.718;7.050;2022-10-18T16:45:01;101929.13;;;18.22;89.20
50087;BME280;35967;50.718;7.050;2022-10-18T16:55:08;101938.09;;;18.13;88.73
50087;BME280;35967;50.718;7.050;2022-10-18T17:05:23;101959.31;;;18.03;88.16
50087;BME280;35967;50.718;7.050;2022-10-18T17:15:26;101963.00;;;17.95;88.04
50087;BME280;35967;50.718;7.050;2022-10-18T17:25:38;101974.53;;;17.87;86.87
50087;BME280;35967;50.718;7.050;2022-10-18T17:36:01;101985.47;;;17.70;85.79
50087;BME280;35967;50.718;7.050;2022-10-18T17:46:07;101986.97;;;17.50;86.68
50087;BME280;35967;50.718;7.050;2022-10-18T17:56:12;101984.63;;;17.41;85.21
50087;BME280;35967;50.718;7.050;2022-10-18T18:06:19;101989.03;;;17.39;84.98
50087;BME280;35967;50.718;7.050;2022-10-18T18:16:24;101982.38;;;17.28;84.56
50087;BME280;35967;50.718;7.050;2022-10-18T18:26:31;101998.53;;;17.10;83.05
50087;BME280;35967;50.718;7.050;2022-10-18T18:36:34;101999.41;;;17.09;83.58
50087;BME280;35967;50.718;7.050;2022-10-18T18:46:39;101991.16;;;16.94;82.83
50087;BME280;35967;50.718;7.050;2022-10-18T18:56:42;101995.81;;;16.80;81.43
50087;BME280;35967;50.718;7.050;2022-10-18T19:06:47;101991.00;;;16.66;80.48
50087;BME280;35967;50.718;7.050;2022-10-18T19:16:51;101982.81;;;16.47;80.87
50087;BME280;35967;50.718;7.050;2022-10-18T19:26:58;101986.97;;;16.54;80.78
50087;BME280;35967;50.718;7.050;2022-10-18T19:37:02;101988.94;;;16.46;80.65
50087;BME280;35967;50.718;7.050;2022-10-18T19:47:10;101997.22;;;16.24;79.84
50087;BME280;35967;50.718;7.050;2022-10-18T19:57:13;101997.44;;;16.15;79.29
50087;BME280;35967;50.718;7.050;2022-10-18T20:07:17;102001.44;;;15.92;78.70
50087;BME280;35967;50.718;7.050;2022-10-18T20:17:21;102008.56;;;15.84;78.06
50087;BME280;35967;50.718;7.050;2022-10-18T20:27:25;102004.50;;;15.70;78.52
50087;BME280;35967;50.718;7.050;2022-10-18T20:37:28;102021.06;;;15.66;78.75
50087;BME280;35967;50.718;7.050;2022-10-18T20:47:33;102015.84;;;15.66;77.76
50087;BME280;35967;50.718;7.050;2022-10-18T20:57:36;102021.25;;;15.57;76.84
50087;BME280;35967;50.718;7.050;2022-10-18T21:07:41;102018.06;;;15.42;78.23
50087;BME280;35967;50.718;7.050;2022-10-18T21:17:48;102005.22;;;15.38;78.33
50087;BME280;35967;50.718;7.050;2022-10-18T21:27:53;101997.56;;;15.30;77.84
50087;BME280;35967;50.718;7.050;2022-10-18T21:37:56;102009.19;;;15.10;77.45
50087;BME280;35967;50.718;7.050;2022-10-18T21:48:01;102004.19;;;14.99;77.25
50087;BME280;35967;50.718;7.050;2022-10-18T21:58:04;101992.41;;;14.83;76.92
50087;BME280;35967;50.718;7.050;2022-10-18T22:08:08;101999.78;;;14.56;77.82
50087;BME280;35967;50.718;7.050;2022-10-18T22:18:11;101982.47;;;14.57;77.60
50087;BME280;35967;50.718;7.050;2022-10-18T22:28:16;101988.00;;;14.36;77.71
50087;BME280;35967;50.718;7.050;2022-10-18T22:38:19;101984.47;;;14.42;76.94
50087;BME280;35967;50.718;7.050;2022-10-18T22:48:23;101978.69;;;14.25;76.62
50087;BME280;35967;50.718;7.050;2022-10-18T22:58:26;101975.53;;;14.07;77.09
50087;BME280;35967;50.718;7.050;2022-10-18T23:08:31;101978.47;;;13.82;77.87
50087;BME280;35967;50.718;7.050;2022-10-18T23:18:34;101984.59;;;13.78;77.72
50087;BME280;35967;50.718;7.050;2022-10-18T23:28:41;101975.81;;;13.88;76.04
50087;BME280;35967;50.718;7.050;2022-10-18T23:38:44;101982.31;;;13.56;77.54
50087;BME280;35967;50.718;7.050;2022-10-18T23:48:48;101978.28;;;13.31;78.15
50087;BME280;35967;50.718;7.050;2022-10-18T23:58:51;101978.41;;;13.18;77.93
